• Join FlightAware (Why Join?)
  • Login
  • US Flag 
01:40AM EDT


 

Airport Tracker/Info


-or-


 

Live Flight TrackerFlight Track Log ✈ N957AN ✈ 13-Apr-2013 ✈ KPHL - KMIA

Flight Track Log - Related Links

Times and Time Zones

All times are in EDT time to prevent confusion due to time zone crossing. See the N957AN flight status page for this flight to view local times or setup timezone preferences in your user account.

Time Position Orientation Groundspeed Altitude Reporting Facility
EDT Latitude Longitude Course Direction KTS MPH feet Rate Location/Type
06:10AM 39.8444 -75.3006 180° South 185 213 1,500  Level FAA TRACON SMA TRACON (SMA)
06:10AM 39.8294 -75.3136 214° Southwest 204 235 1,700 1,020 Climbing FAA TRACON SMA TRACON (SMA)
06:11AM 39.8083 -75.3294 210° Southwest 226 260 2,200 1,620 Climbing FAA TRACON SMA TRACON (SMA)
06:11AM 39.7892 -75.3450 212° Southwest 261 300 2,800 1,920 Climbing FAA TRACON SMA TRACON (SMA)
06:11AM 39.7694 -75.3594 209° Southwest 263 303 3,500 2,460 Climbing FAA TRACON SMA TRACON (SMA)
06:12AM 39.5590 -75.3068 187° South  Level FlightAware Approximate
06:12AM 39.7419 -75.3697 196° South 277 319 4,500  Level FAA TRACON SMA TRACON (SMA)
06:12AM 39.7178 -75.3697 180° South 283 326 5,400 2,700 Climbing FAA TRACON SMA TRACON (SMA)
06:12AM 39.6936 -75.3692 179° South 281 323 6,300 3,840 Climbing FAA TRACON SMA TRACON (SMA)
06:13AM 39.4535 -75.3322 194° South  Level FlightAware Approximate
06:13AM 39.6658 -75.3692 180° South 264 304 7,900  Level FAA TRACON SMA TRACON (SMA)
06:13AM 39.6442 -75.3700 182° South 255 293 8,800 2,220 Climbing FAA TRACON SMA TRACON (SMA)
06:13AM 39.6222 -75.3711 182° South 254 292 9,400 2,220 Climbing FAA TRACON SMA TRACON (SMA)
06:14AM 39.3464 -75.3430 185° South  Level FlightAware Approximate
06:14AM 39.5933 -75.3717 181° South 267 307 10,300  Level FAA TRACON SMA TRACON (SMA)
06:14AM 39.5694 -75.3725 182° South 279 321 10,700 1,020 Climbing FAA TRACON SMA TRACON (SMA)
06:14AM 39.5425 -75.3731 181° South 314 361 11,000 1,260 Climbing FAA TRACON SMA TRACON (SMA)
06:15AM 39.2415 -75.3667 180° South  Level FlightAware Approximate
06:15AM 39.5072 -75.3742 181° South 332 382 11,600  Level FAA TRACON SMA TRACON (SMA)
06:15AM 39.4794 -75.3733 179° South 331 381 12,300 2,460 Climbing FAA TRACON SMA TRACON (SMA)
06:15AM 39.4497 -75.3758 184° South 338 389 13,200 2,760 Climbing FAA TRACON SMA TRACON (SMA)
06:16AM 39.4122 -75.3761 180° South 345 397 14,100 2,520 Climbing FAA TRACON SMA TRACON (SMA)
06:16AM 39.3819 -75.3769 181° South 349 402 14,900 2,460 Climbing FAA TRACON SMA TRACON (SMA)
06:16AM 39.3514 -75.3775 181° South 354 407 15,800 2,880 Climbing FAA TRACON SMA TRACON (SMA)
06:17AM 39.3133 -75.3778 180° South 357 411 16,800 2,700 Climbing FAA TRACON SMA TRACON (SMA)
06:17AM 39.2844 -75.3783 181° South 360 414 17,600 1,800 Climbing FAA TRACON SMA TRACON (SMA)
06:17AM 39.2672 -75.3836 193° South 352 405 18,000 600 Climbing FAA TRACON SMA TRACON (SMA)
06:18AM 39.2672 -75.3836 339° North 352 405 18,000 2,760 Level FAA TRACON SMA TRACON (SMA)
06:19AM 39.1008 -75.4819 205° Southwest 347 399 22,700 2,700 Climbing Washington Center
06:20AM 39.0111 -75.5328 204° Southwest 353 406 24,400 1,500 Climbing Washington Center
06:21AM 38.9175 -75.5889 205° Southwest 364 419 25,800 1,500 Climbing Washington Center
06:22AM 38.8217 -75.6475 205° Southwest 371 427 27,400 1,020 Climbing Washington Center
06:23AM 38.7214 -75.7061 205° Southwest 383 441 27,900 300 Climbing Washington Center
06:24AM 38.6214 -75.7617 203° Southwest 389 448 28,000  Climbing Washington Center
06:25AM 38.5253 -75.8172 204° Southwest 389 448 28,000  Level Washington Center
06:26AM 38.4336 -75.8647 202° Southwest 389 448 28,000 540 Level Washington Center
06:27AM 38.3353 -75.9225 205° Southwest 394 453 29,100 960 Climbing Washington Center
06:28AM 38.2308 -75.9828 204° Southwest 399 459 30,000 420 Climbing Washington Center
06:29AM 38.1306 -76.0406 204° Southwest 399 459 30,000  Level Washington Center
06:30AM 38.0303 -76.0981 204° Southwest 399 459 30,000  Level Washington Center
06:31AM 37.9319 -76.1553 205° Southwest 399 459 30,000  Level Washington Center
06:32AM 37.8317 -76.2097 203° Southwest 399 459 30,000  Level Washington Center
06:33AM 37.7311 -76.2692 205° Southwest 399 459 30,000  Level Washington Center
06:34AM 37.6308 -76.3233 203° Southwest 399 459 30,000  Level Washington Center
06:35AM 37.5303 -76.3800 204° Southwest 399 459 30,000  Level Washington Center
06:36AM 37.4297 -76.4367 204° Southwest 399 459 30,000  Level Washington Center
06:37AM 37.3292 -76.4931 204° Southwest 394 453 30,000  Level Washington Center
06:38AM 37.2286 -76.5492 204° Southwest 394 453 30,000  Level Washington Center
06:39AM 37.1239 -76.6053 203° Southwest 394 453 30,000  Level Washington Center
06:40AM 37.0233 -76.6636 205° Southwest 394 453 30,000  Level Washington Center
06:41AM 36.9228 -76.7219 205° Southwest 399 459 30,000  Level Washington Center
06:42AM 36.8200 -76.7775 203° Southwest 399 459 30,000  Level Washington Center
06:43AM 36.7192 -76.8331 204° Southwest 399 459 30,000  Level Washington Center
06:44AM 36.6144 -76.8883 203° Southwest 399 459 30,000  Level Washington Center
06:45AM 36.5136 -76.9486 206° Southwest 399 459 30,000  Level Washington Center
06:46AM 36.4000 -77.0086 203° Southwest 399 459 30,000 -60 Level Washington Center
06:47AM 36.2972 -77.0636 203° Southwest 404 465 29,900  Descending Washington Center
06:48AM 36.1922 -77.1233 205° Southwest 404 465 30,000  Climbing Washington Center
06:49AM 36.1019 -77.1706 203° Southwest 404 465 30,000  Level Washington Center
06:50AM 35.9967 -77.2275 204° Southwest 404 465 30,000  Level Washington Center
06:51AM 35.8917 -77.2817 203° Southwest 404 465 30,000  Level Washington Center
06:52AM 35.7867 -77.3383 204° Southwest 409 471 30,000  Level Washington Center
06:53AM 35.6814 -77.3972 204° Southwest 414 476 30,000  Level Washington Center
06:54AM 35.5742 -77.4536 203° Southwest 419 482 30,000  Level Washington Center
06:55AM 35.4669 -77.5072 202° Southwest 419 482 30,000  Level Washington Center
06:56AM 35.3658 -77.5661 205° Southwest 419 482 30,000  Level Washington Center
06:57AM 35.2786 -77.6503 218° Southwest 414 476 30,000  Level Washington Center
06:58AM 35.1936 -77.7447 222° Southwest 409 471 30,000  Level Washington Center
06:59AM 35.1108 -77.8289 220° Southwest 409 471 30,000  Level Washington Center
07:00AM 35.0233 -77.9178 220° Southwest 404 465 30,000  Level Washington Center
07:01AM 34.9361 -78.0064 220° Southwest 409 471 30,000  Level Washington Center
07:02AM 34.8508 -78.0950 220° Southwest 409 471 30,000 -60 Level Washington Center
07:03AM 34.7589 -78.1958 222° Southwest 409 471 29,900  Descending Washington Center
07:05AM 34.5875 -78.3683 220° Southwest 419 482 30,000  Climbing Jacksonville Center
07:06AM 34.5011 -78.4561 220° Southwest 419 482 30,000  Level Jacksonville Center
07:07AM 34.4125 -78.5486 221° Southwest 419 482 30,000  Level Jacksonville Center
07:08AM 34.3236 -78.6336 218° Southwest 414 476 30,000  Level Jacksonville Center
07:09AM 34.2347 -78.7233 220° Southwest 414 476 30,000  Level Jacksonville Center
07:10AM 34.1461 -78.8128 220° Southwest 419 482 30,000  Level Jacksonville Center
07:11AM 34.0592 -78.8997 220° Southwest 414 476 30,000  Level Jacksonville Center
07:12AM 33.9567 -78.9619 207° Southwest 414 476 30,000 -60 Level Jacksonville Center
07:13AM 33.8456 -79.0119 200° South 416 479 29,900  Descending Jacksonville Center
07:14AM 33.7344 -79.0642 201° Southwest 421 484 30,000  Climbing Jacksonville Center
07:15AM 33.6275 -79.1161 202° Southwest 427 491 30,000  Level Jacksonville Center
07:16AM 33.5225 -79.1656 201° Southwest 427 491 30,000 -60 Level Jacksonville Center
07:17AM 33.4156 -79.2172 202° Southwest 422 486 29,900  Descending Jacksonville Center
07:18AM 33.3064 -79.2689 202° Southwest 422 486 30,000  Climbing Jacksonville Center
07:19AM 33.1953 -79.3206 201° Southwest 427 491 30,000  Level Jacksonville Center
07:20AM 33.0903 -79.3744 203° Southwest 422 486 30,000  Level Jacksonville Center
07:21AM 32.9811 -79.4283 202° Southwest 422 486 30,000  Level Jacksonville Center
07:22AM 32.8719 -79.4794 201° Southwest 427 491 30,000  Level Jacksonville Center
07:23AM 32.7628 -79.5306 201° Southwest 427 491 30,000 -60 Level Jacksonville Center
07:24AM 32.6514 -79.5839 202° Southwest 427 491 29,900  Descending Jacksonville Center
07:25AM 32.5422 -79.6347 201° Southwest 427 491 30,000  Climbing Jacksonville Center
07:26AM 32.4328 -79.6881 202° Southwest 427 491 30,000  Level Jacksonville Center
07:27AM 32.3214 -79.7411 202° Southwest 427 491 30,000  Level Jacksonville Center
07:28AM 32.2100 -79.7914 201° Southwest 427 491 30,000  Level Jacksonville Center
07:29AM 32.0917 -79.8175 191° South 427 491 30,000 -60 Level Jacksonville Center
07:30AM 31.9711 -79.8436 190° South 439 505 29,900  Descending Jacksonville Center
07:31AM 31.8528 -79.8719 191° South 439 505 30,000  Climbing Jacksonville Center
07:32AM 31.7303 -79.8956 189° South 444 511 30,000  Level Jacksonville Center
07:33AM 31.6119 -79.9189 190° South 444 511 30,000  Level Jacksonville Center
07:34AM 31.4850 -79.9472 191° South 438 504 30,000  Level Jacksonville Center
07:35AM 31.3647 -79.9778 192° South 438 504 30,000  Level Jacksonville Center
07:36AM 31.2525 -80.0008 190° South 432 497 30,000  Level Jacksonville Center
07:37AM 31.1256 -80.0192 187° South 438 504 30,000  Level Jacksonville Center
07:38AM 31.0114 -80.0469 192° South 438 504 30,000  Level Jacksonville Center
07:39AM 30.8844 -80.0703 189° South 443 510 30,000  Level Jacksonville Center
07:40AM 30.7725 -80.0953 191° South 436 502 30,000 180 Level Jacksonville Center
07:41AM 30.6561 -80.1203 190° South 436 502 30,400 960 Climbing Jacksonville Center
07:42AM 30.5375 -80.1431 189° South 431 496 32,000 720 Climbing Jacksonville Center
07:43AM 30.4272 -80.1656 190° South 424 488 31,900  Descending Jacksonville Center
07:44AM 30.3131 -80.1906 191° South 417 480 32,000  Climbing Jacksonville Center
07:45AM 30.2008 -80.2153 191° South 417 480 31,900  Descending Jacksonville Center
07:47AM 30.0147 -80.2481 189° South 446 513 32,000  Climbing Miami Center
07:48AM 29.9017 -80.2731 191° South 428 493 32,000 -60 Level Miami Center
07:49AM 29.7883 -80.2981 191° South 422 486 31,900  Descending Miami Center
07:50AM 29.6733 -80.3208 190° South 422 486 32,000  Climbing Miami Center
07:51AM 29.5581 -80.3458 191° South 417 480 31,900 -60 Descending Miami Center
07:52AM 29.4719 -80.3619 189° South 417 480 31,900  Level Miami Center
07:53AM 29.3461 -80.3961 193° South 412 474 32,000  Climbing Miami Center
07:54AM 29.2308 -80.4139 188° South 412 474 32,000  Level Miami Center
07:55AM 29.1081 -80.4075 177° South 423 487 32,000  Level Miami Center
07:56AM 28.9897 -80.3894 172° South 423 487 32,000  Level Miami Center
07:57AM 28.8586 -80.3733 174° South 428 493 32,000  Level Miami Center
07:58AM 28.7506 -80.3581 173° South 434 499 32,000  Level Miami Center
07:59AM 28.6278 -80.3425 174° South 439 505 32,000  Level Miami Center
08:00AM 28.4967 -80.3242 173° South 439 505 32,000  Level Miami Center
08:01AM 28.3761 -80.3064 173° South 444 511 32,000  Level Miami Center
08:02AM 28.2603 -80.2672 163° South 436 502 32,000  Level Miami Center
08:03AM 28.1636 -80.2008 149° Southeast 436 502 32,000  Level Miami Center
08:04AM 28.0444 -80.1197 149° Southeast 450 518 32,000  Level Miami Center
08:05AM 27.9397 -80.0461 148° Southeast 455 524 32,000 -120 Level Miami Center
08:06AM 27.8367 -79.9775 150° Southeast 455 524 31,800 -600 Descending Miami Center
08:07AM 27.7339 -79.9114 150° Southeast 452 520 30,900 -1,260 Descending Miami Center
08:08AM 27.6364 -79.8783 163° South 391 450 29,300 -1,860 Descending Miami Center
08:09AM 27.5242 -79.8567 170° South 373 429 27,200 -1,860 Descending Miami Center
08:10AM 27.4236 -79.8633 183° South 363 418 25,600 -1,560 Descending Miami Center
08:11AM 27.3272 -79.8911 194° South 364 419 24,100 -840 Descending Miami Center
08:12AM 27.2389 -79.9147 193° South 352 405 24,000 -60 Descending Miami Center
08:13AM 27.1361 -79.9331 189° South 352 405 24,000 -480 Level Miami Center
08:14AM 27.0356 -79.9489 188° South 367 422 23,100 -1,500 Descending Miami Center
08:15AM 26.9308 -79.9672 189° South 374 430 21,100 -1,980 Descending Miami Center
08:16AM 26.8261 -79.9853 189° South 379 436 19,200 -1,920 Descending Miami Center
08:17AM 26.7253 -80.0058 190° South 374 430 17,300 -1,980 Descending Miami Center
08:18AM 26.6497 -80.0203 190° South 336 387 15,700 -1,980 Descending Miami Center
08:18AM 26.5953 -80.0303 189° South 335 386 14,600 -2,040 Descending Miami Center
08:19AM 26.5431 -80.0358 185° South 337 388 13,300 -1,620 Descending Miami Center
08:19AM 26.5031 -80.0464 193° South 329 379 13,000 -300 Descending Miami Center
08:20AM 26.4611 -80.0475 181° South 331 381 13,000  Level Miami Center
08:20AM 26.4050 -80.0439 177° South 330 380 13,000  Level Miami Center
08:21AM 26.3614 -80.0333 168° South 331 381 13,000  Level Miami Center
08:21AM 26.3072 -80.0250 172° South 335 386 13,000 -540 Level Miami Center
08:22AM 26.2678 -80.0169 170° South 331 381 12,500 -1,500 Descending Miami Center
08:22AM 26.2342 -80.0206 186° South 331 381 11,800 -1,140 Descending Miami Center
08:23AM 26.1922 -80.0264 187° South 326 375 11,400 -900 Descending Miami Center
08:23AM 26.1500 -80.0439 200° South 293 337 10,900 -1,140 Descending Miami Center
08:24AM 26.1122 -80.0522 191° South 313 360 10,300 -1,260 Descending Miami Center
08:24AM 26.0639 -80.0669 195° South 282 325 9,500 -1,320 Descending Miami Center
08:25AM 26.0367 -80.0733 192° South 292 336 9,000 -900 Descending Miami Center
08:25AM 25.9903 -80.0906 198° South 254 292 8,600 -720 Descending Miami Center
08:26AM 25.9694 -80.0922 184° South 275 316 8,300 -600 Descending Miami Center
08:26AM 25.9433 -80.1308 233° Southwest 221 254 8,000 -300 Descending Miami Center
08:27AM 25.9325 -80.1489 236° Southwest 235 270 8,000  Level Miami Center
08:27AM 25.9108 -80.1922 241° Southwest 229 264 8,000 -420 Level Miami Center
08:28AM 25.8989 -80.2589 259° West 228 262 7,400 -1,380 Descending Miami Center
08:29AM 25.9178 -80.3356 285° West 232 267 5,200 -2,040 Descending Miami Center
08:30AM 25.9372 -80.3961 290° West 227 261 3,400 -1,980 Descending Miami Center